Time;durP1;ratioP1;P1;durP2;ratioP2;P2;SDS_P1;SDS_P2;PMS_P1;PMS_P2;Temp;Humidity;BMP_temperature;BMP_pressure;BME280_temperature;BME280_humidity;BME280_pressure;Samples;Min_cycle;Max_cycle;Signal;HPM_P1;HPM_P2
2022/05/03 00:02:17;;;;;;;;;;;21.30;34.80;;;;;;8334970;28;20012;-50
2022/05/03 00:06:21;;;;;;;;;;;21.30;34.90;;;;;;8334494;28;20400;-47
2022/05/03 00:10:41;;;;;;;;;;;21.30;34.80;;;;;;8335238;28;19988;-45
2022/05/03 00:14:46;;;;;;;;;;;21.30;34.90;;;;;;8334245;28;19917;-46
2022/05/03 00:18:47;;;;;;;;;;;21.30;34.90;;;;;;8334530;28;19974;-45
2022/05/03 00:22:47;;;;;;;;;;;21.30;34.90;;;;;;8334400;28;19925;-46
2022/05/03 00:26:49;;;;;;;;;;;21.20;34.90;;;;;;8333740;28;20396;-45
2022/05/03 00:30:49;;;;;;;;;;;21.20;34.90;;;;;;8334457;28;19959;-45
2022/05/03 00:34:50;;;;;;;;;;;21.20;34.90;;;;;;8333583;28;20319;-45
2022/05/03 00:38:51;;;;;;;;;;;21.20;34.90;;;;;;8333455;28;19917;-45
2022/05/03 00:43:00;;;;;;;;;;;21.20;34.90;;;;;;8334051;28;20366;-45
2022/05/03 00:47:13;;;;;;;;;;;21.20;34.90;;;;;;8333610;28;19925;-49
2022/05/03 00:51:40;;;;;;;;;;;21.20;34.90;;;;;;8333250;28;20330;-45
2022/05/03 00:55:49;;;;;;;;;;;21.20;35.00;;;;;;8303628;28;19917;-45
2022/05/03 01:00:01;;;;;;;;;;;21.20;35.00;;;;;;8333256;28;19921;-46
2022/05/03 01:04:02;;;;;;;;;;;21.10;35.00;;;;;;8333058;28;19932;-48
2022/05/03 01:08:04;;;;;;;;;;;21.10;35.00;;;;;;8333336;28;20416;-48
2022/05/03 01:12:20;;;;;;;;;;;21.10;35.00;;;;;;8334220;28;19928;-46
2022/05/03 01:16:26;;;;;;;;;;;21.10;35.00;;;;;;8363476;28;19948;-49
2022/05/03 01:20:30;;;;;;;;;;;21.10;35.00;;;;;;8365969;28;19912;-49
2022/05/03 01:24:32;;;;;;;;;;;21.10;35.00;;;;;;8365276;28;19928;-46
2022/05/03 01:28:51;;;;;;;;;;;21.10;35.00;;;;;;8366136;28;19916;-46
2022/05/03 01:32:52;;;;;;;;;;;21.10;35.00;;;;;;8364717;28;19983;-47
2022/05/03 01:36:52;;;;;;;;;;;21.10;35.00;;;;;;8364979;28;19917;-45
2022/05/03 01:40:53;;;;;;;;;;;21.10;35.00;;;;;;8365330;28;19939;-46
2022/05/03 01:45:02;;;;;;;;;;;21.10;35.10;;;;;;8363617;28;19935;-47
2022/05/03 01:53:39;;;;;;;;;;;21.00;35.00;;;;;;8366711;28;19923;-45
2022/05/03 01:58:06;;;;;;;;;;;21.00;35.10;;;;;;8364116;28;19916;-45
2022/05/03 02:02:06;;;;;;;;;;;21.00;35.10;;;;;;8364280;28;19957;-47
2022/05/03 02:06:11;;;;;;;;;;;21.00;35.10;;;;;;8364424;28;20409;-46
2022/05/03 02:10:31;;;;;;;;;;;21.00;35.10;;;;;;8364140;28;19970;-45
2022/05/03 02:14:46;;;;;;;;;;;21.00;35.10;;;;;;8363956;28;19939;-45
2022/05/03 02:19:05;;;;;;;;;;;20.90;35.10;;;;;;8363468;28;19917;-47
2022/05/03 02:23:20;;;;;;;;;;;20.90;35.10;;;;;;8363653;28;19919;-47
2022/05/03 02:27:21;;;;;;;;;;;20.90;35.10;;;;;;8362987;28;19940;-47
2022/05/03 02:31:35;;;;;;;;;;;20.90;35.10;;;;;;8363706;28;20432;-45
2022/05/03 02:35:35;;;;;;;;;;;20.90;35.10;;;;;;8363081;28;20013;-46
2022/05/03 02:39:38;;;;;;;;;;;20.90;35.10;;;;;;8363312;28;19925;-46
2022/05/03 02:43:39;;;;;;;;;;;20.90;35.20;;;;;;8363180;28;19917;-47
2022/05/03 02:47:47;;;;;;;;;;;20.80;35.10;;;;;;8362760;28;19924;-46
2022/05/03 02:51:55;;;;;;;;;;;20.80;35.20;;;;;;8363242;28;19971;-46
2022/05/03 02:56:05;;;;;;;;;;;20.80;35.10;;;;;;8363287;28;19932;-47
2022/05/03 03:04:29;;;;;;;;;;;20.80;35.20;;;;;;8364084;28;19932;-46
2022/05/03 03:08:36;;;;;;;;;;;20.80;35.10;;;;;;8362838;28;20000;-44
2022/05/03 03:12:46;;;;;;;;;;;20.80;35.10;;;;;;8362470;28;20027;-48
2022/05/03 03:17:06;;;;;;;;;;;20.80;35.20;;;;;;8363074;28;19959;-46
2022/05/03 03:21:08;;;;;;;;;;;20.80;35.20;;;;;;8361725;28;19971;-46
2022/05/03 03:25:13;;;;;;;;;;;20.80;35.30;;;;;;8362580;28;19924;-47
2022/05/03 03:29:14;;;;;;;;;;;20.80;35.20;;;;;;8362559;28;20393;-46
2022/05/03 03:33:16;;;;;;;;;;;20.70;35.10;;;;;;8361972;28;19951;-47
2022/05/03 03:37:18;;;;;;;;;;;20.80;35.20;;;;;;8362344;28;19913;-49
2022/05/03 03:41:19;;;;;;;;;;;20.70;35.10;;;;;;8362638;28;19913;-46
2022/05/03 03:45:19;;;;;;;;;;;20.70;35.10;;;;;;8361773;28;19936;-49
2022/05/03 03:49:20;;;;;;;;;;;20.70;35.10;;;;;;8362379;28;20388;-45
2022/05/03 03:53:21;;;;;;;;;;;20.70;35.20;;;;;;8362121;28;19917;-47
2022/05/03 03:57:22;;;;;;;;;;;20.70;35.20;;;;;;8361563;28;19988;-45
2022/05/03 04:01:22;;;;;;;;;;;20.70;35.20;;;;;;8362445;28;19912;-46
2022/05/03 04:05:24;;;;;;;;;;;20.70;35.20;;;;;;8362450;28;20324;-46
2022/05/03 04:09:25;;;;;;;;;;;20.70;35.20;;;;;;8341725;28;19921;-45
2022/05/03 04:13:26;;;;;;;;;;;20.70;35.30;;;;;;8335988;28;19923;-46
2022/05/03 04:17:26;;;;;;;;;;;20.80;35.30;;;;;;8334550;28;20034;-47
2022/05/03 04:21:27;;;;;;;;;;;20.70;35.20;;;;;;8334272;28;19917;-47
2022/05/03 04:25:27;;;;;;;;;;;20.80;35.10;;;;;;8334376;28;19925;-45
2022/05/03 04:29:28;;;;;;;;;;;20.90;35.10;;;;;;8334400;28;19971;-45
2022/05/03 04:33:28;;;;;;;;;;;20.90;35.10;;;;;;8333648;28;19992;-45
2022/05/03 04:37:29;;;;;;;;;;;20.90;35.10;;;;;;8334267;28;20006;-45
2022/05/03 04:41:29;;;;;;;;;;;20.90;35.10;;;;;;8334006;28;19921;-46
2022/05/03 04:45:30;;;;;;;;;;;21.00;35.00;;;;;;8333327;28;19929;-45
2022/05/03 04:49:31;;;;;;;;;;;21.00;35.00;;;;;;8333713;28;20420;-47
2022/05/03 04:53:32;;;;;;;;;;;21.00;35.00;;;;;;8333729;28;19924;-45
2022/05/03 04:57:33;;;;;;;;;;;21.00;35.00;;;;;;8333145;28;20310;-48
2022/05/03 05:01:33;;;;;;;;;;;21.00;35.00;;;;;;8333585;28;19956;-47
2022/05/03 05:05:34;;;;;;;;;;;21.00;35.10;;;;;;8333316;28;19936;-48
2022/05/03 05:09:34;;;;;;;;;;;21.00;35.10;;;;;;8332515;28;19928;-47
2022/05/03 05:13:36;;;;;;;;;;;21.00;35.10;;;;;;8332830;28;19923;-45
2022/05/03 05:17:36;;;;;;;;;;;21.00;35.10;;;;;;8332605;28;20282;-47
2022/05/03 05:21:36;;;;;;;;;;;21.00;35.10;;;;;;8331385;28;19917;-45
2022/05/03 05:25:37;;;;;;;;;;;21.00;35.10;;;;;;8332480;28;19968;-47
2022/05/03 05:29:37;;;;;;;;;;;21.00;35.10;;;;;;8332042;28;19917;-46
2022/05/03 05:33:38;;;;;;;;;;;21.00;35.00;;;;;;8332581;28;20349;-45
2022/05/03 05:37:38;;;;;;;;;;;21.00;35.00;;;;;;8332283;28;19924;-44
2022/05/03 05:41:39;;;;;;;;;;;21.00;35.00;;;;;;8331596;28;19924;-45
2022/05/03 05:45:39;;;;;;;;;;;21.00;35.00;;;;;;8331871;28;20071;-44
2022/05/03 05:49:40;;;;;;;;;;;21.00;35.00;;;;;;8331726;28;19918;-44
2022/05/03 05:53:41;;;;;;;;;;;21.00;35.00;;;;;;8331246;28;19918;-45
2022/05/03 05:57:41;;;;;;;;;;;20.90;35.00;;;;;;8331960;28;19920;-45
2022/05/03 06:01:42;;;;;;;;;;;20.90;35.00;;;;;;8331194;28;19924;-44
2022/05/03 06:05:43;;;;;;;;;;;20.90;35.00;;;;;;8331192;28;20012;-45
2022/05/03 06:09:43;;;;;;;;;;;20.90;35.00;;;;;;8331255;28;19979;-47
2022/05/03 06:13:43;;;;;;;;;;;20.90;35.50;;;;;;8331060;28;20359;-46
2022/05/03 06:17:44;;;;;;;;;;;20.90;35.00;;;;;;8312761;28;19917;-45
2022/05/03 06:21:45;;;;;;;;;;;20.90;35.00;;;;;;8330826;28;19921;-46
2022/05/03 06:25:45;;;;;;;;;;;20.90;35.00;;;;;;8330469;28;19979;-46
2022/05/03 06:29:45;;;;;;;;;;;20.90;35.00;;;;;;8329780;28;20286;-47
2022/05/03 06:33:46;;;;;;;;;;;20.90;35.00;;;;;;8330503;28;20038;-46
2022/05/03 06:37:46;;;;;;;;;;;20.90;35.00;;;;;;8330631;28;20390;-47
2022/05/03 06:41:47;;;;;;;;;;;20.90;35.00;;;;;;8329914;28;19917;-46
2022/05/03 06:45:47;;;;;;;;;;;20.90;35.00;;;;;;8330453;28;20371;-47
2022/05/03 06:49:48;;;;;;;;;;;20.90;35.00;;;;;;8330195;28;19921;-51
2022/05/03 06:53:48;;;;;;;;;;;20.90;35.00;;;;;;8329567;28;19970;-46
2022/05/03 06:57:49;;;;;;;;;;;21.00;35.00;;;;;;8330242;28;19987;-46
2022/05/03 07:01:49;;;;;;;;;;;21.00;34.90;;;;;;8329404;28;20339;-46
2022/05/03 07:05:49;;;;;;;;;;;21.00;34.90;;;;;;8329901;28;20370;-45
2022/05/03 07:09:50;;;;;;;;;;;21.00;34.90;;;;;;8330130;28;19918;-47
2022/05/03 07:13:50;;;;;;;;;;;21.10;34.80;;;;;;8329708;28;19913;-46
2022/05/03 07:26:30;;;;;;;;;;;21.10;34.80;;;;;;8329538;28;19932;-47
2022/05/03 07:30:30;;;;;;;;;;;21.10;34.80;;;;;;8329480;28;19967;-46
2022/05/03 07:34:31;;;;;;;;;;;21.10;34.80;;;;;;8329388;28;20370;-47
2022/05/03 07:38:32;;;;;;;;;;;21.10;34.70;;;;;;8329700;28;19952;-45
2022/05/03 07:42:33;;;;;;;;;;;21.20;34.70;;;;;;8329947;28;20394;-45
2022/05/03 07:46:33;;;;;;;;;;;21.20;34.60;;;;;;8335682;28;19925;-48
2022/05/03 07:50:34;;;;;;;;;;;21.20;34.60;;;;;;8335645;28;19921;-45
2022/05/03 07:54:34;;;;;;;;;;;21.20;34.70;;;;;;8334934;28;19928;-46
2022/05/03 07:58:35;;;;;;;;;;;21.20;34.70;;;;;;8335298;28;19925;-46
2022/05/03 08:02:36;;;;;;;;;;;21.30;34.70;;;;;;8334347;28;19917;-47
2022/05/03 08:06:36;;;;;;;;;;;21.20;34.60;;;;;;8335117;28;19947;-48
2022/05/03 08:10:37;;;;;;;;;;;21.20;34.70;;;;;;8334708;28;20404;-49
2022/05/03 08:14:37;;;;;;;;;;;21.30;34.70;;;;;;8334076;28;19917;-47
2022/05/03 08:18:38;;;;;;;;;;;21.30;34.70;;;;;;8334534;28;19920;-45
2022/05/03 08:22:42;;;;;;;;;;;21.30;34.70;;;;;;8334313;28;20345;-46
2022/05/03 08:26:42;;;;;;;;;;;21.30;34.80;;;;;;8333840;28;20386;-45
2022/05/03 08:30:43;;;;;;;;;;;21.30;34.80;;;;;;8334122;28;19924;-46
2022/05/03 08:34:43;;;;;;;;;;;21.30;34.80;;;;;;8334270;28;19913;-45
2022/05/03 08:43:05;;;;;;;;;;;21.30;34.80;;;;;;8338327;28;20333;-46
2022/05/03 08:47:05;;;;;;;;;;;21.30;34.90;;;;;;8333580;28;19936;-47
2022/05/03 08:51:07;;;;;;;;;;;21.30;34.90;;;;;;8333128;28;20450;-47
2022/05/03 08:55:08;;;;;;;;;;;21.30;34.90;;;;;;8333555;28;19913;-46
2022/05/03 08:59:08;;;;;;;;;;;21.30;34.90;;;;;;8333512;28;20337;-45
2022/05/03 09:03:09;;;;;;;;;;;21.30;34.90;;;;;;8332748;28;19924;-46
2022/05/03 09:07:17;;;;;;;;;;;21.40;35.00;;;;;;8332972;28;19929;-45
2022/05/03 09:11:18;;;;;;;;;;;21.40;35.00;;;;;;8333214;28;19917;-46
2022/05/03 09:15:32;;;;;;;;;;;21.40;35.00;;;;;;8332399;28;19924;-45
2022/05/03 09:19:32;;;;;;;;;;;21.40;35.00;;;;;;8332665;28;20317;-47
2022/05/03 09:23:53;;;;;;;;;;;21.40;34.90;;;;;;8332894;28;19913;-45
2022/05/03 09:28:04;;;;;;;;;;;21.40;35.00;;;;;;8332463;28;19944;-47
2022/05/03 09:32:04;;;;;;;;;;;21.40;35.00;;;;;;8332244;28;19963;-47
2022/05/03 09:36:09;;;;;;;;;;;21.40;35.00;;;;;;8331573;28;19996;-49
2022/05/03 09:40:12;;;;;;;;;;;21.50;35.00;;;;;;8332172;28;19940;-46
2022/05/03 09:44:13;;;;;;;;;;;21.50;35.00;;;;;;8332272;28;20263;-46
2022/05/03 09:48:13;;;;;;;;;;;21.50;35.10;;;;;;8331215;28;19917;-46
2022/05/03 09:52:27;;;;;;;;;;;21.50;35.00;;;;;;8331773;28;20401;-47
2022/05/03 09:56:30;;;;;;;;;;;21.50;35.00;;;;;;8331363;28;19971;-45
2022/05/03 10:00:33;;;;;;;;;;;21.50;35.00;;;;;;8330893;28;19917;-45
2022/05/03 10:04:33;;;;;;;;;;;21.60;35.00;;;;;;8330421;28;19925;-46
2022/05/03 10:08:34;;;;;;;;;;;21.60;35.00;;;;;;8330893;28;20393;-46
2022/05/03 10:12:35;;;;;;;;;;;21.60;35.00;;;;;;8330450;28;20009;-45
2022/05/03 10:20:56;;;;;;;;;;;21.60;34.90;;;;;;8332316;28;19928;-47
2022/05/03 10:25:02;;;;;;;;;;;21.70;35.00;;;;;;8330704;28;19921;-46
2022/05/03 10:29:07;;;;;;;;;;;21.70;34.90;;;;;;8331130;28;20381;-47
2022/05/03 10:33:19;;;;;;;;;;;21.70;34.90;;;;;;8330266;28;19921;-47
2022/05/03 10:37:26;;;;;;;;;;;21.70;34.90;;;;;;8330798;28;20337;-47
2022/05/03 10:41:29;;;;;;;;;;;21.70;34.90;;;;;;8330462;28;20003;-45
2022/05/03 10:45:29;;;;;;;;;;;21.80;34.90;;;;;;8329769;28;19925;-45
2022/05/03 10:49:30;;;;;;;;;;;21.80;34.90;;;;;;8330275;28;19921;-44
2022/05/03 10:53:35;;;;;;;;;;;21.80;34.80;;;;;;8329978;28;19918;-45
2022/05/03 10:57:54;;;;;;;;;;;21.80;34.80;;;;;;8329441;28;20386;-46
2022/05/03 11:01:55;;;;;;;;;;;21.80;34.80;;;;;;8329915;28;19940;-50
2022/05/03 11:06:14;;;;;;;;;;;21.90;34.80;;;;;;8329824;28;19933;-46
2022/05/03 11:10:33;;;;;;;;;;;21.90;34.80;;;;;;8329840;28;19913;-50
2022/05/03 11:14:34;;;;;;;;;;;21.90;34.80;;;;;;8329866;28;19917;-45
2022/05/03 11:18:34;;;;;;;;;;;21.90;34.70;;;;;;8333739;28;19917;-46
2022/05/03 11:22:35;;;;;;;;;;;21.90;34.70;;;;;;8336236;28;20336;-50
2022/05/03 11:26:37;;;;;;;;;;;22.00;34.70;;;;;;8335593;28;19925;-45
2022/05/03 11:30:38;;;;;;;;;;;22.00;34.70;;;;;;8336525;28;19917;-45
2022/05/03 11:34:39;;;;;;;;;;;22.00;34.70;;;;;;8336322;28;19948;-47
2022/05/03 11:38:39;;;;;;;;;;;22.10;34.70;;;;;;8335423;28;19917;-46
2022/05/03 11:42:44;;;;;;;;;;;22.10;34.60;;;;;;8335919;28;19917;-46
2022/05/03 11:46:45;;;;;;;;;;;22.10;34.70;;;;;;8335657;28;20019;-46
2022/05/03 11:59:25;;;;;;;;;;;22.10;34.60;;;;;;8335430;28;19931;-48
2022/05/03 12:03:26;;;;;;;;;;;22.20;34.60;;;;;;8334507;28;19921;-46
2022/05/03 12:07:27;;;;;;;;;;;22.20;34.60;;;;;;8334875;28;19929;-45
2022/05/03 12:11:27;;;;;;;;;;;22.20;34.60;;;;;;8334841;28;20388;-45
2022/05/03 12:15:28;;;;;;;;;;;22.10;34.60;;;;;;8334453;28;20012;-48
2022/05/03 12:19:33;;;;;;;;;;;22.10;34.60;;;;;;8334697;28;19918;-46
2022/05/03 12:23:33;;;;;;;;;;;22.10;34.60;;;;;;8334474;28;19924;-45
2022/05/03 12:27:34;;;;;;;;;;;22.10;34.60;;;;;;8333492;28;20378;-45
2022/05/03 12:31:36;;;;;;;;;;;22.10;34.60;;;;;;8333804;28;19951;-46
2022/05/03 12:35:39;;;;;;;;;;;22.10;34.70;;;;;;8334002;28;19960;-47
2022/05/03 12:39:39;;;;;;;;;;;22.10;34.70;;;;;;8333989;28;19917;-48
2022/05/03 12:43:40;;;;;;;;;;;22.10;34.70;;;;;;8334115;28;20362;-46
2022/05/03 12:47:41;;;;;;;;;;;22.10;34.70;;;;;;8333357;28;20055;-49
2022/05/03 12:51:45;;;;;;;;;;;22.20;34.70;;;;;;8333516;28;19971;-45
2022/05/03 12:55:46;;;;;;;;;;;22.20;34.70;;;;;;8333739;28;19917;-47
2022/05/03 12:59:49;;;;;;;;;;;22.20;34.70;;;;;;8332369;28;19924;-45
2022/05/03 13:03:49;;;;;;;;;;;22.20;34.60;;;;;;8347951;28;19921;-44
2022/05/03 13:07:50;;;;;;;;;;;22.20;34.70;;;;;;8348763;28;20458;-47
2022/05/03 13:11:52;;;;;;;;;;;22.20;34.70;;;;;;8341340;28;19916;-46
2022/05/03 13:15:52;;;;;;;;;;;22.20;34.70;;;;;;8345378;28;19928;-45
2022/05/03 13:19:53;;;;;;;;;;;22.20;34.70;;;;;;8326364;28;20312;-46
2022/05/03 13:23:53;;;;;;;;;;;22.20;34.70;;;;;;8338045;28;20004;-45
2022/05/03 13:27:54;;;;;;;;;;;22.20;34.60;;;;;;8345511;28;19934;-44
2022/05/03 13:31:54;;;;;;;;;;;22.20;34.70;;;;;;8334422;28;19971;-46
2022/05/03 13:40:29;;;;;;;;;;;22.30;34.90;;;;;;8336456;28;20285;-45
2022/05/03 13:44:29;;;;;;;;;;;22.20;34.60;;;;;;8330330;28;19940;-45
2022/05/03 13:48:30;;;;;;;;;;;22.30;34.70;;;;;;8335556;28;19917;-45
2022/05/03 13:52:33;;;;;;;;;;;22.30;34.70;;;;;;8336842;28;19925;-46
2022/05/03 13:56:34;;;;;;;;;;;22.30;34.70;;;;;;8336961;28;20043;-47
2022/05/03 14:00:35;;;;;;;;;;;22.30;34.70;;;;;;8331780;28;20329;-46
2022/05/03 14:04:43;;;;;;;;;;;22.30;34.60;;;;;;8283138;28;19921;-46
2022/05/03 14:08:43;;;;;;;;;;;22.30;34.70;;;;;;8256235;28;19941;-46
2022/05/03 14:12:44;;;;;;;;;;;22.30;34.60;;;;;;8259283;28;20001;-45
2022/05/03 14:16:44;;;;;;;;;;;22.30;34.60;;;;;;8260255;28;20001;-50
2022/05/03 14:20:44;;;;;;;;;;;22.40;34.60;;;;;;8260175;28;19914;-50
2022/05/03 14:24:45;;;;;;;;;;;22.40;34.60;;;;;;8259369;28;19918;-49
2022/05/03 14:28:48;;;;;;;;;;;22.40;34.60;;;;;;8259921;28;19918;-49
2022/05/03 14:32:48;;;;;;;;;;;22.40;34.50;;;;;;8259619;28;19918;-45
2022/05/03 14:36:49;;;;;;;;;;;22.40;34.50;;;;;;8260178;28;19926;-46
2022/05/03 14:40:49;;;;;;;;;;;22.50;34.50;;;;;;8259920;28;19925;-45
2022/05/03 14:44:51;;;;;;;;;;;22.50;34.50;;;;;;8259743;28;19922;-47
2022/05/03 14:48:51;;;;;;;;;;;22.50;34.50;;;;;;8259662;28;20005;-46
2022/05/03 14:52:52;;;;;;;;;;;22.50;34.50;;;;;;8259284;28;19918;-46
2022/05/03 15:05:32;;;;;;;;;;;22.50;34.50;;;;;;8316194;28;20385;-45
2022/05/03 15:09:32;;;;;;;;;;;22.50;34.40;;;;;;8323340;28;19917;-46
2022/05/03 15:13:33;;;;;;;;;;;22.50;34.40;;;;;;8315766;28;19925;-49
2022/05/03 15:17:33;;;;;;;;;;;22.50;34.40;;;;;;8301840;28;19917;-46
2022/05/03 15:21:33;;;;;;;;;;;22.50;34.40;;;;;;8301308;28;20263;-48
2022/05/03 15:25:34;;;;;;;;;;;22.50;34.40;;;;;;8301265;28;20397;-47
2022/05/03 15:29:35;;;;;;;;;;;22.50;34.40;;;;;;8301319;28;19924;-46
2022/05/03 15:33:35;;;;;;;;;;;22.50;34.30;;;;;;8299065;28;20020;-46
2022/05/03 15:37:36;;;;;;;;;;;22.50;34.30;;;;;;8301607;28;19925;-45
2022/05/03 15:41:38;;;;;;;;;;;22.50;34.30;;;;;;8301062;28;20391;-47
2022/05/03 15:45:39;;;;;;;;;;;22.60;34.40;;;;;;8301586;28;19924;-45
2022/05/03 15:49:39;;;;;;;;;;;22.60;34.30;;;;;;8301424;28;19921;-44
2022/05/03 15:53:39;;;;;;;;;;;22.60;34.30;;;;;;8300732;28;20374;-45
2022/05/03 15:57:40;;;;;;;;;;;22.60;34.40;;;;;;8300870;28;19924;-45
2022/05/03 16:01:41;;;;;;;;;;;22.50;34.30;;;;;;8301215;28;19925;-47
2022/05/03 16:05:42;;;;;;;;;;;22.50;34.30;;;;;;8300127;28;19918;-47
2022/05/03 16:09:42;;;;;;;;;;;22.50;34.30;;;;;;8300015;28;19918;-46
2022/05/03 16:13:43;;;;;;;;;;;22.50;34.30;;;;;;8299041;28;19924;-46
2022/05/03 16:17:43;;;;;;;;;;;22.50;34.30;;;;;;8299267;28;19917;-46
2022/05/03 16:21:47;;;;;;;;;;;22.50;34.30;;;;;;8299988;28;19929;-49
2022/05/03 16:25:47;;;;;;;;;;;22.50;34.30;;;;;;8299013;28;19917;-45
2022/05/03 16:29:48;;;;;;;;;;;22.50;34.30;;;;;;8299358;28;20342;-46
2022/05/03 16:33:52;;;;;;;;;;;22.50;34.30;;;;;;8299375;28;19929;-46
2022/05/03 16:42:12;;;;;;;;;;;22.50;34.30;;;;;;8300225;28;19932;-49
2022/05/03 16:46:13;;;;;;;;;;;22.50;34.30;;;;;;8299091;28;19918;-49
2022/05/03 16:50:14;;;;;;;;;;;22.50;34.30;;;;;;8299319;28;20295;-49
2022/05/03 16:54:14;;;;;;;;;;;22.60;34.30;;;;;;8298630;28;19917;-47
2022/05/03 16:58:16;;;;;;;;;;;22.50;34.30;;;;;;8297968;28;19918;-48
2022/05/03 17:02:18;;;;;;;;;;;22.50;34.30;;;;;;8299340;28;19925;-45
2022/05/03 17:06:18;;;;;;;;;;;22.50;34.30;;;;;;8298556;28;19918;-45
2022/05/03 17:10:19;;;;;;;;;;;22.50;34.30;;;;;;8298589;28;19924;-45
2022/05/03 17:14:20;;;;;;;;;;;22.50;34.30;;;;;;8298592;28;19976;-45
2022/05/03 17:18:20;;;;;;;;;;;22.50;34.30;;;;;;8297661;28;19921;-47
2022/05/03 17:22:21;;;;;;;;;;;22.50;34.30;;;;;;8297838;28;19921;-49
2022/05/03 17:26:23;;;;;;;;;;;22.50;34.30;;;;;;8297743;28;19996;-49
2022/05/03 17:30:23;;;;;;;;;;;22.50;34.30;;;;;;8297540;28;19941;-46
2022/05/03 17:34:24;;;;;;;;;;;22.50;34.30;;;;;;8297956;28;19917;-48
2022/05/03 17:38:25;;;;;;;;;;;22.50;34.30;;;;;;8297592;28;19917;-46
2022/05/03 17:42:25;;;;;;;;;;;22.50;34.40;;;;;;8297439;28;20358;-48
2022/05/03 17:46:26;;;;;;;;;;;22.50;34.40;;;;;;8297749;28;19925;-47
2022/05/03 17:50:27;;;;;;;;;;;22.50;34.40;;;;;;8297944;28;20073;-46
2022/05/03 17:54:27;;;;;;;;;;;22.50;34.40;;;;;;8297169;28;19953;-48
2022/05/03 17:58:29;;;;;;;;;;;22.50;34.40;;;;;;8297739;28;19917;-46
2022/05/03 18:02:29;;;;;;;;;;;22.40;34.40;;;;;;8297928;28;19933;-49
2022/05/03 18:06:30;;;;;;;;;;;22.40;34.40;;;;;;8296914;28;20000;-47
2022/05/03 18:10:30;;;;;;;;;;;22.40;35.00;;;;;;8297269;28;19918;-48
2022/05/03 18:14:31;;;;;;;;;;;22.40;34.40;;;;;;8297353;28;20004;-50
2022/05/03 18:18:31;;;;;;;;;;;22.40;34.40;;;;;;8296775;28;19917;-50
2022/05/03 18:22:34;;;;;;;;;;;22.40;34.40;;;;;;8297505;28;19921;-46
2022/05/03 18:26:35;;;;;;;;;;;22.40;34.40;;;;;;8297212;28;20342;-45
2022/05/03 18:30:35;;;;;;;;;;;22.40;34.40;;;;;;8296714;28;19965;-49
2022/05/03 18:34:36;;;;;;;;;;;22.40;34.50;;;;;;8297199;28;19968;-44
2022/05/03 18:38:36;;;;;;;;;;;22.40;35.00;;;;;;8296324;28;20290;-47
2022/05/03 18:42:38;;;;;;;;;;;22.30;34.50;;;;;;8295704;28;20006;-47
2022/05/03 18:46:39;;;;;;;;;;;22.30;34.50;;;;;;8296921;28;20349;-44
2022/05/03 18:50:40;;;;;;;;;;;22.30;34.50;;;;;;8300993;28;19921;-44
2022/05/03 18:59:07;;;;;;;;;;;22.30;34.50;;;;;;8294447;28;20302;-46
2022/05/03 19:03:08;;;;;;;;;;;22.30;34.60;;;;;;8302611;28;19933;-45
2022/05/03 19:07:09;;;;;;;;;;;22.30;34.60;;;;;;8301778;28;20087;-44
2022/05/03 19:11:09;;;;;;;;;;;22.30;34.60;;;;;;8302474;28;19944;-46
2022/05/03 19:15:10;;;;;;;;;;;22.30;34.60;;;;;;8301839;28;19917;-46
2022/05/03 19:19:11;;;;;;;;;;;22.30;34.60;;;;;;8302095;28;19921;-46
2022/05/03 19:23:11;;;;;;;;;;;22.30;34.60;;;;;;8302199;28;20371;-44
2022/05/03 19:31:31;;;;;;;;;;;22.30;34.60;;;;;;8307416;28;19924;-46
2022/05/03 19:35:32;;;;;;;;;;;22.30;34.70;;;;;;8301676;28;20256;-47
2022/05/03 19:39:33;;;;;;;;;;;22.20;34.60;;;;;;8301063;28;19972;-47
2022/05/03 19:43:35;;;;;;;;;;;22.20;34.60;;;;;;8301714;28;20442;-49
2022/05/03 19:47:39;;;;;;;;;;;22.20;34.70;;;;;;8301578;28;20303;-46
2022/05/03 19:51:42;;;;;;;;;;;22.20;34.60;;;;;;8277431;28;19917;-47
2022/05/03 19:55:43;;;;;;;;;;;22.20;34.70;;;;;;8300944;28;19918;-46
2022/05/03 19:59:43;;;;;;;;;;;22.20;34.70;;;;;;8300460;28;19918;-45
2022/05/03 20:03:44;;;;;;;;;;;22.20;34.80;;;;;;8301144;28;19926;-46
2022/05/03 20:07:51;;;;;;;;;;;22.20;34.70;;;;;;8300884;28;19924;-49
2022/05/03 20:11:54;;;;;;;;;;;22.20;34.70;;;;;;8300223;28;19914;-45
2022/05/03 20:15:55;;;;;;;;;;;22.20;34.80;;;;;;8300224;28;20001;-46
2022/05/03 20:19:55;;;;;;;;;;;22.20;34.70;;;;;;8300299;28;20282;-46
2022/05/03 20:23:55;;;;;;;;;;;22.20;34.70;;;;;;8299895;28;19976;-46
2022/05/03 20:27:56;;;;;;;;;;;22.20;34.70;;;;;;8300196;28;19944;-45
2022/05/03 20:31:56;;;;;;;;;;;22.20;34.70;;;;;;8300117;28;19921;-45
2022/05/03 20:35:57;;;;;;;;;;;22.20;34.70;;;;;;8299264;28;19925;-48
2022/05/03 20:39:58;;;;;;;;;;;22.20;34.70;;;;;;8299654;28;19913;-46
2022/05/03 20:43:58;;;;;;;;;;;22.20;34.70;;;;;;8299449;28;19933;-46
2022/05/03 20:52:17;;;;;;;;;;;22.20;34.80;;;;;;8305424;28;19948;-46
2022/05/03 20:56:18;;;;;;;;;;;22.20;34.70;;;;;;8299152;28;19918;-46
2022/05/03 21:00:18;;;;;;;;;;;22.10;34.70;;;;;;8298607;28;19952;-48
2022/05/03 21:04:19;;;;;;;;;;;22.10;34.70;;;;;;8299162;28;20008;-46
2022/05/03 21:08:19;;;;;;;;;;;22.20;34.80;;;;;;8299093;28;19924;-46
2022/05/03 21:12:20;;;;;;;;;;;22.10;34.70;;;;;;8297716;28;20377;-45
2022/05/03 21:16:20;;;;;;;;;;;22.10;34.70;;;;;;8298679;28;19929;-46
2022/05/03 21:20:21;;;;;;;;;;;22.10;34.70;;;;;;8298475;28;19914;-45
2022/05/03 21:24:21;;;;;;;;;;;22.10;34.70;;;;;;8297611;28;19926;-47
2022/05/03 21:28:22;;;;;;;;;;;22.10;34.70;;;;;;8298361;28;19940;-46
2022/05/03 21:32:22;;;;;;;;;;;22.10;34.70;;;;;;8298009;28;20374;-45
2022/05/03 21:36:23;;;;;;;;;;;22.10;34.70;;;;;;8297490;28;20362;-45
2022/05/03 21:40:23;;;;;;;;;;;22.00;34.70;;;;;;8298242;28;19913;-45
2022/05/03 21:44:24;;;;;;;;;;;22.10;34.70;;;;;;8297727;28;20374;-46
2022/05/03 21:48:24;;;;;;;;;;;22.00;34.70;;;;;;8297440;28;19917;-46
2022/05/03 21:52:25;;;;;;;;;;;22.10;34.70;;;;;;8297537;28;19917;-46
2022/05/03 21:56:25;;;;;;;;;;;22.10;34.70;;;;;;8297531;28;19914;-46
2022/05/03 22:00:34;;;;;;;;;;;22.00;34.70;;;;;;8296506;28;19917;-45
2022/05/03 22:04:35;;;;;;;;;;;22.00;34.70;;;;;;8296775;28;20067;-45
2022/05/03 22:08:36;;;;;;;;;;;22.00;34.70;;;;;;8297463;28;20370;-46
2022/05/03 22:12:36;;;;;;;;;;;22.00;34.80;;;;;;8296998;28;19992;-45
2022/05/03 22:16:36;;;;;;;;;;;21.90;34.70;;;;;;8297388;28;19921;-45
2022/05/03 22:20:37;;;;;;;;;;;22.00;34.70;;;;;;8296928;28;19913;-45
2022/05/03 22:24:38;;;;;;;;;;;22.00;34.80;;;;;;8300163;28;20286;-46
2022/05/03 22:28:38;;;;;;;;;;;21.90;34.70;;;;;;8303703;28;19924;-46
2022/05/03 22:32:39;;;;;;;;;;;21.90;34.70;;;;;;8303309;28;19920;-48
2022/05/03 22:36:39;;;;;;;;;;;21.90;34.70;;;;;;8303228;28;19924;-46
2022/05/03 22:40:40;;;;;;;;;;;21.90;34.80;;;;;;8303569;28;19918;-45
2022/05/03 22:44:40;;;;;;;;;;;21.90;34.80;;;;;;8302839;28;19934;-45
2022/05/03 22:48:41;;;;;;;;;;;21.90;34.70;;;;;;8302866;28;20293;-45
2022/05/03 22:52:42;;;;;;;;;;;21.90;34.80;;;;;;8303042;28;19940;-45
2022/05/03 22:56:43;;;;;;;;;;;21.80;34.70;;;;;;8302351;28;19914;-45
2022/05/03 23:00:43;;;;;;;;;;;21.80;34.80;;;;;;8302431;28;19949;-46
2022/05/03 23:04:44;;;;;;;;;;;21.90;34.80;;;;;;8302702;28;19925;-49
2022/05/03 23:08:45;;;;;;;;;;;21.80;34.80;;;;;;8301878;28;19925;-47
2022/05/03 23:12:45;;;;;;;;;;;21.80;34.80;;;;;;8301180;28;20378;-46
2022/05/03 23:16:46;;;;;;;;;;;21.80;34.80;;;;;;8302013;28;19918;-46
2022/05/03 23:20:46;;;;;;;;;;;21.80;34.80;;;;;;8301578;28;19964;-47
2022/05/03 23:24:47;;;;;;;;;;;21.80;34.80;;;;;;8301623;28;19932;-46
2022/05/03 23:28:49;;;;;;;;;;;21.80;34.80;;;;;;8301894;28;19917;-48
2022/05/03 23:32:50;;;;;;;;;;;21.80;34.80;;;;;;8301230;28;19917;-46
2022/05/03 23:36:50;;;;;;;;;;;21.80;34.80;;;;;;8301267;28;19921;-49
2022/05/03 23:40:51;;;;;;;;;;;21.80;34.80;;;;;;8301443;28;19928;-51
2022/05/03 23:44:51;;;;;;;;;;;21.70;34.80;;;;;;8301172;28;19921;-45
2022/05/03 23:48:51;;;;;;;;;;;21.70;34.90;;;;;;8301580;28;19925;-45
2022/05/03 23:52:55;;;;;;;;;;;21.70;34.90;;;;;;8300950;28;19925;-46
2022/05/03 23:56:56;;;;;;;;;;;21.70;34.90;;;;;;8300453;28;19980;-46
